createdAt,value
2022-10-10T00:02:31.350Z,9.03
2022-10-10T00:05:06.191Z,9.03
2022-10-10T00:07:41.141Z,8.91
2022-10-10T00:10:09.251Z,8.88
2022-10-10T00:12:42.261Z,8.83
2022-10-10T00:15:24.534Z,8.78
2022-10-10T00:18:05.778Z,8.53
2022-10-10T00:20:56.762Z,8.47
2022-10-10T00:23:30.494Z,8.41
2022-10-10T00:26:08.723Z,8.22
2022-10-10T00:28:41.067Z,8.06
2022-10-10T00:31:19.692Z,7.95
2022-10-10T00:33:55.493Z,7.81
2022-10-10T00:36:24.603Z,7.72
2022-10-10T00:38:59.662Z,7.58
2022-10-10T00:41:32.803Z,7.50
2022-10-10T00:44:27.453Z,7.46
2022-10-10T00:46:55.334Z,7.34
2022-10-10T00:49:33.178Z,7.14
2022-10-10T00:52:13.165Z,7.12
2022-10-10T00:54:43.677Z,7.04
2022-10-10T00:57:19.307Z,6.96
2022-10-10T00:59:46.724Z,6.89
2022-10-10T01:02:27.056Z,6.86
2022-10-10T01:05:02.266Z,6.81
2022-10-10T01:07:34.750Z,6.72
2022-10-10T01:10:15.137Z,6.66
2022-10-10T01:13:29.780Z,6.55
2022-10-10T01:16:32.598Z,6.39
2022-10-10T01:19:28.295Z,6.32
2022-10-10T01:22:23.308Z,6.23
2022-10-10T01:25:26.010Z,6.12
2022-10-10T01:28:31.295Z,6.09
2022-10-10T01:31:10.888Z,6.02
2022-10-10T01:34:02.185Z,5.95
2022-10-10T01:36:43.172Z,5.93
2022-10-10T01:39:21.320Z,5.77
2022-10-10T01:42:08.070Z,5.75
2022-10-10T01:44:57.100Z,5.71
2022-10-10T01:47:25.861Z,5.64
2022-10-10T01:50:05.756Z,5.60
2022-10-10T01:52:58.226Z,5.53
2022-10-10T01:55:54.945Z,5.52
2022-10-10T01:58:53.802Z,5.44
2022-10-10T02:01:39.267Z,5.39
2022-10-10T02:04:33.798Z,5.40
2022-10-10T02:07:17.855Z,5.29
2022-10-10T02:09:57.481Z,5.25
2022-10-10T02:12:49.136Z,5.16
2022-10-10T02:15:25.221Z,5.09
2022-10-10T02:18:00.196Z,5.06
2022-10-10T02:20:31.298Z,5.05
2022-10-10T02:23:10.258Z,5.02
2022-10-10T02:25:45.530Z,5.11
2022-10-10T02:28:15.377Z,5.02
2022-10-10T02:30:55.160Z,5.02
2022-10-10T02:33:47.962Z,4.88
2022-10-10T02:36:31.121Z,4.77
2022-10-10T02:39:06.080Z,4.71
2022-10-10T02:41:37.741Z,4.68
2022-10-10T02:44:11.185Z,4.65
2022-10-10T02:46:38.007Z,4.63
2022-10-10T02:49:14.689Z,4.52
2022-10-10T02:51:52.354Z,4.55
2022-10-10T02:54:30.332Z,4.50
2022-10-10T02:57:16.601Z,4.48
2022-10-10T02:59:48.121Z,4.44
2022-10-10T03:02:24.418Z,4.44
2022-10-10T03:04:59.079Z,4.37
2022-10-10T03:07:33.647Z,4.35
2022-10-10T03:10:09.969Z,4.32
2022-10-10T03:12:51.280Z,4.27
2022-10-10T03:15:30.891Z,4.23
2022-10-10T03:18:08.271Z,4.22
2022-10-10T03:21:00.005Z,4.13
2022-10-10T03:23:33.147Z,4.10
2022-10-10T03:26:11.905Z,4.10
2022-10-10T03:28:44.899Z,4.08
2022-10-10T03:31:20.608Z,4.07
2022-10-10T03:34:05.422Z,4.03
2022-10-10T03:36:35.141Z,4.04
2022-10-10T03:39:10.466Z,4.08
2022-10-10T03:41:53.279Z,4.05
2022-10-10T03:44:32.386Z,4.02
2022-10-10T03:47:13.511Z,4.03
2022-10-10T03:49:57.851Z,4.00
2022-10-10T03:52:33.361Z,4.01
2022-10-10T03:55:08.835Z,3.93
2022-10-10T03:57:44.375Z,3.88
2022-10-10T04:00:21.768Z,3.85
2022-10-10T04:03:00.140Z,3.95
2022-10-10T04:05:41.167Z,3.89
2022-10-10T04:08:21.722Z,3.89
2022-10-10T04:11:00.578Z,3.82
2022-10-10T04:13:35.912Z,3.78
2022-10-10T04:16:16.794Z,3.69
2022-10-10T04:18:55.606Z,3.63
2022-10-10T04:21:30.705Z,3.59
2022-10-10T04:24:20.395Z,3.56
2022-10-10T04:26:58.305Z,3.52
2022-10-10T04:29:36.361Z,3.49
2022-10-10T04:32:14.811Z,3.46
2022-10-10T04:34:55.727Z,3.43
2022-10-10T04:37:40.754Z,3.38
2022-10-10T04:40:25.507Z,3.52
2022-10-10T04:43:06.463Z,3.54
2022-10-10T04:45:51.456Z,3.41
2022-10-10T04:48:24.056Z,3.45
2022-10-10T04:50:59.249Z,3.43
2022-10-10T04:53:34.622Z,3.45
2022-10-10T04:56:12.123Z,3.45
2022-10-10T04:58:50.289Z,3.35
2022-10-10T05:01:25.899Z,3.38
2022-10-10T05:04:00.990Z,3.35
2022-10-10T05:06:42.081Z,3.33
2022-10-10T05:09:11.883Z,3.41
2022-10-10T05:11:53.362Z,3.40
2022-10-10T05:14:36.376Z,3.45
2022-10-10T05:17:11.683Z,3.47
2022-10-10T05:19:47.626Z,3.53
2022-10-10T05:22:27.138Z,3.43
2022-10-10T05:25:06.744Z,3.51
2022-10-10T05:27:46.114Z,3.58
2022-10-10T05:30:28.527Z,3.60
2022-10-10T05:33:04.068Z,3.70
2022-10-10T05:35:46.766Z,3.72
2022-10-10T05:38:21.928Z,3.79
2022-10-10T05:40:54.606Z,3.93
2022-10-10T05:43:35.138Z,4.02
2022-10-10T05:46:22.115Z,4.12
2022-10-10T05:48:57.634Z,4.30
2022-10-10T05:51:32.703Z,4.46
2022-10-10T05:54:14.628Z,4.66
2022-10-10T05:56:44.663Z,4.80
2022-10-10T05:59:22.160Z,4.95
2022-10-10T06:02:00.137Z,5.08
2022-10-10T06:04:35.100Z,5.19
2022-10-10T06:07:18.946Z,5.34
2022-10-10T06:09:58.213Z,5.47
2022-10-10T06:12:37.174Z,5.62
2022-10-10T06:15:12.432Z,5.79
2022-10-10T06:17:58.949Z,5.97
2022-10-10T06:20:38.945Z,6.07
2022-10-10T06:23:10.202Z,6.27
2022-10-10T06:25:52.046Z,6.38
2022-10-10T06:28:28.980Z,6.58
2022-10-10T06:31:07.989Z,6.76
2022-10-10T06:33:53.320Z,6.94
2022-10-10T06:36:31.400Z,7.18
2022-10-10T06:39:25.448Z,7.39
2022-10-10T06:42:03.246Z,7.58
2022-10-10T06:44:50.300Z,7.86
2022-10-10T06:47:19.250Z,8.05
2022-10-10T06:49:54.398Z,8.18
2022-10-10T06:52:32.069Z,8.38
2022-10-10T06:55:06.692Z,8.56
2022-10-10T06:57:44.597Z,8.77
2022-10-10T07:00:20.998Z,8.94
2022-10-10T07:02:54.269Z,9.06
2022-10-10T07:05:41.675Z,9.33
2022-10-10T07:08:12.334Z,9.48
2022-10-10T07:10:41.854Z,9.58
2022-10-10T07:13:18.048Z,9.71
2022-10-10T07:15:51.901Z,9.78
2022-10-10T07:18:24.205Z,9.90
2022-10-10T07:21:05.978Z,10.01
2022-10-10T07:23:47.806Z,10.10
2022-10-10T07:26:16.503Z,10.14
2022-10-10T07:28:44.223Z,10.24
2022-10-10T07:31:28.111Z,10.22
2022-10-10T07:34:10.439Z,10.28
2022-10-10T07:36:43.681Z,10.53
2022-10-10T07:39:17.128Z,10.61
2022-10-10T07:41:54.197Z,10.84
2022-10-10T07:44:23.677Z,11.02
2022-10-10T07:47:18.048Z,11.21
2022-10-10T07:49:46.061Z,11.34
2022-10-10T07:52:21.264Z,11.50
2022-10-10T07:54:50.463Z,11.61
2022-10-10T08:00:17.009Z,11.79
2022-10-10T08:02:54.433Z,11.93
2022-10-10T08:05:29.934Z,12.10
2022-10-10T08:08:05.189Z,12.22
2022-10-10T08:10:40.184Z,12.37
2022-10-10T08:13:21.445Z,12.53
2022-10-10T08:16:02.339Z,12.64
2022-10-10T08:18:48.475Z,12.71
2022-10-10T08:21:27.097Z,12.69
2022-10-10T08:24:10.103Z,12.72
2022-10-10T08:26:53.516Z,12.89
2022-10-10T08:29:26.045Z,13.03
2022-10-10T08:32:20.741Z,13.00
2022-10-10T08:35:04.327Z,13.10
2022-10-10T08:37:39.655Z,13.16
2022-10-10T08:40:19.127Z,13.32
2022-10-10T08:43:05.177Z,13.30
2022-10-10T08:45:42.892Z,13.35
2022-10-10T08:48:25.950Z,13.39
2022-10-10T08:51:13.467Z,13.45
2022-10-10T08:53:48.959Z,13.54
2022-10-10T08:56:32.863Z,13.48
2022-10-10T08:59:19.346Z,13.64
2022-10-10T09:02:17.893Z,13.73
2022-10-10T09:05:31.047Z,13.75
2022-10-10T09:08:12.649Z,13.81
2022-10-10T09:10:57.210Z,13.89
2022-10-10T09:13:33.640Z,13.99
2022-10-10T09:16:26.264Z,13.98
2022-10-10T09:19:42.479Z,14.09
2022-10-10T09:22:33.895Z,14.04
2022-10-10T09:25:40.894Z,14.15
2022-10-10T09:28:41.584Z,14.29
2022-10-10T09:31:34.913Z,14.52
2022-10-10T09:34:37.632Z,14.45
2022-10-10T09:37:46.355Z,14.54
2022-10-10T09:40:24.405Z,14.60
2022-10-10T09:43:17.281Z,14.72
2022-10-10T09:46:01.751Z,14.84
2022-10-10T09:49:05.731Z,14.96
2022-10-10T09:51:43.919Z,14.93
2022-10-10T09:54:20.557Z,14.94
2022-10-10T09:57:00.689Z,15.10
2022-10-10T09:59:45.313Z,15.26
2022-10-10T10:02:32.484Z,15.41
2022-10-10T10:05:54.413Z,15.58
2022-10-10T10:09:06.388Z,15.81
2022-10-10T10:14:51.253Z,15.77
2022-10-10T10:17:29.723Z,15.88
2022-10-10T10:20:48.067Z,15.78
2022-10-10T10:23:54.329Z,15.96
2022-10-10T10:26:52.940Z,16.01
2022-10-10T10:29:41.394Z,16.10
2022-10-10T10:33:06.891Z,16.11
2022-10-10T10:36:18.160Z,16.19
2022-10-10T10:39:17.753Z,16.30
2022-10-10T10:42:34.206Z,16.39
2022-10-10T10:45:30.073Z,16.22
2022-10-10T10:48:39.207Z,16.24
2022-10-10T10:51:46.184Z,16.32
2022-10-10T10:54:53.022Z,16.49
2022-10-10T10:58:48.363Z,16.62
2022-10-10T11:01:57.664Z,16.53
2022-10-10T11:05:21.053Z,16.53
2022-10-10T11:08:29.711Z,16.54
2022-10-10T11:11:24.849Z,16.59
2022-10-10T11:14:34.907Z,16.66
2022-10-10T11:17:39.170Z,16.77
2022-10-10T11:20:36.080Z,16.83
2022-10-10T11:26:30.993Z,17.12
2022-10-10T11:29:24.588Z,16.90
2022-10-10T11:32:06.812Z,16.81
2022-10-10T11:38:29.833Z,17.00
2022-10-10T11:44:36.229Z,16.83
2022-10-10T11:47:39.598Z,17.01
2022-10-10T11:50:42.193Z,17.16
2022-10-10T11:53:41.916Z,17.06
2022-10-10T11:56:38.096Z,17.17
2022-10-10T11:59:19.947Z,17.19
2022-10-10T12:02:04.122Z,17.37
2022-10-10T12:04:37.695Z,17.42
2022-10-10T12:07:36.184Z,17.42
2022-10-10T12:10:30.559Z,17.41
2022-10-10T12:13:20.956Z,17.47
2022-10-10T12:16:02.148Z,17.48
2022-10-10T12:19:00.217Z,17.46
2022-10-10T12:22:05.309Z,17.54
2022-10-10T12:25:41.044Z,17.49
2022-10-10T12:28:30.843Z,17.51
2022-10-10T12:31:19.769Z,17.58
2022-10-10T12:34:21.777Z,17.54
2022-10-10T12:40:40.316Z,17.77
2022-10-10T12:43:30.168Z,17.69
2022-10-10T12:46:30.934Z,17.90
2022-10-10T12:49:40.033Z,17.78
2022-10-10T12:52:53.667Z,17.87
2022-10-10T12:55:34.539Z,17.98
2022-10-10T12:58:28.146Z,17.76
2022-10-10T13:01:34.102Z,17.76
2022-10-10T13:04:09.971Z,17.70
2022-10-10T13:06:52.256Z,17.64
2022-10-10T13:09:41.250Z,17.48
2022-10-10T13:12:36.843Z,17.38
2022-10-10T13:15:22.669Z,17.37
2022-10-10T13:18:19.191Z,17.52
2022-10-10T13:21:02.321Z,17.48
2022-10-10T13:26:59.425Z,17.58
2022-10-10T13:29:41.221Z,17.69
2022-10-10T13:32:45.663Z,17.62
2022-10-10T13:35:30.052Z,17.42
2022-10-10T13:38:17.940Z,17.21
2022-10-10T13:41:14.157Z,17.16
2022-10-10T13:43:47.278Z,17.11
2022-10-10T13:46:41.249Z,17.23
2022-10-10T13:49:32.368Z,17.28
2022-10-10T13:52:28.411Z,17.44
2022-10-10T13:55:37.131Z,17.57
2022-10-10T13:58:34.944Z,17.61
2022-10-10T14:01:07.373Z,17.73
2022-10-10T14:03:52.992Z,17.77
2022-10-10T14:06:29.444Z,17.56
2022-10-10T14:09:17.780Z,17.49
2022-10-10T14:11:56.740Z,17.56
2022-10-10T14:14:53.981Z,17.44
2022-10-10T14:17:35.234Z,17.45
2022-10-10T14:20:23.738Z,17.51
2022-10-10T14:23:22.158Z,17.56
2022-10-10T14:26:00.280Z,17.56
2022-10-10T14:28:35.957Z,17.40
2022-10-10T14:31:20.573Z,17.21
2022-10-10T14:33:59.572Z,17.09
2022-10-10T14:36:42.503Z,17.10
2022-10-10T14:39:19.271Z,17.00
2022-10-10T14:41:56.551Z,16.82
2022-10-10T14:44:37.921Z,16.72
2022-10-10T14:47:18.993Z,16.55
2022-10-10T14:50:05.760Z,16.46
2022-10-10T14:52:46.278Z,16.38
2022-10-10T14:55:32.842Z,16.25
2022-10-10T14:58:14.473Z,16.10
2022-10-10T15:01:06.616Z,15.91
2022-10-10T15:03:47.793Z,15.45
2022-10-10T15:06:32.379Z,15.34
2022-10-10T15:09:26.437Z,15.33
2022-10-10T15:12:06.349Z,15.28
2022-10-10T15:14:36.465Z,15.23
2022-10-10T15:17:11.443Z,15.21
2022-10-10T15:19:46.121Z,15.11
2022-10-10T15:22:29.290Z,14.96
2022-10-10T15:25:08.946Z,14.89
2022-10-10T15:27:44.892Z,14.68
2022-10-10T15:30:23.627Z,14.56
2022-10-10T15:32:59.445Z,14.45
2022-10-10T15:35:56.586Z,14.36
2022-10-10T15:38:33.356Z,14.15
2022-10-10T15:41:21.728Z,13.92
2022-10-10T15:43:55.639Z,13.81
2022-10-10T15:46:34.037Z,13.72
2022-10-10T15:49:16.719Z,13.65
2022-10-10T15:51:47.819Z,13.60
2022-10-10T15:54:23.372Z,13.53
2022-10-10T15:57:05.665Z,13.40
2022-10-10T15:59:43.514Z,13.25
2022-10-10T16:02:17.061Z,13.15
2022-10-10T16:05:02.671Z,13.03
2022-10-10T16:07:47.939Z,12.94
2022-10-10T16:10:15.323Z,12.87
2022-10-10T16:15:45.188Z,12.63
2022-10-10T16:18:14.849Z,12.55
2022-10-10T16:20:50.527Z,12.42
2022-10-10T16:23:22.734Z,12.35
2022-10-10T16:26:19.402Z,12.22
2022-10-10T16:29:02.399Z,12.14
2022-10-10T16:31:33.049Z,12.03
2022-10-10T16:34:06.362Z,11.94
2022-10-10T16:37:01.059Z,11.86
2022-10-10T16:39:40.134Z,11.83
2022-10-10T16:42:07.659Z,11.77
2022-10-10T16:44:37.316Z,11.69
2022-10-10T16:47:15.322Z,11.62
2022-10-10T16:49:43.111Z,11.55
2022-10-10T16:52:18.819Z,11.45
2022-10-10T16:54:52.023Z,11.43
2022-10-10T16:57:22.171Z,11.38
2022-10-10T16:59:56.525Z,11.36
2022-10-10T17:02:45.178Z,11.30
2022-10-10T17:05:15.015Z,11.25
2022-10-10T17:07:45.616Z,11.17
2022-10-10T17:10:12.632Z,11.12
2022-10-10T17:12:54.076Z,11.09
2022-10-10T17:15:25.940Z,11.05
2022-10-10T17:18:09.744Z,10.97
2022-10-10T17:20:47.101Z,10.91
2022-10-10T17:23:22.578Z,10.84
2022-10-10T17:26:00.418Z,10.75
2022-10-10T17:28:37.187Z,10.74
2022-10-10T17:31:15.569Z,10.71
2022-10-10T17:33:53.886Z,10.71
2022-10-10T17:36:36.511Z,10.69
2022-10-10T17:39:14.876Z,10.67
2022-10-10T17:41:57.672Z,10.62
2022-10-10T17:44:49.597Z,10.54
2022-10-10T17:47:33.930Z,10.49
2022-10-10T17:50:31.436Z,10.46
2022-10-10T17:53:06.884Z,10.43
2022-10-10T17:55:45.697Z,10.40
2022-10-10T17:58:25.662Z,10.36
2022-10-10T18:01:05.329Z,10.30
2022-10-10T18:03:43.838Z,10.29
2022-10-10T18:06:14.523Z,10.25
2022-10-10T18:08:57.491Z,10.20
2022-10-10T18:11:38.514Z,10.18
2022-10-10T18:14:17.362Z,10.15
2022-10-10T18:17:02.296Z,10.14
2022-10-10T18:19:34.917Z,10.10
2022-10-10T18:22:14.979Z,10.06
2022-10-10T18:24:50.573Z,10.02
2022-10-10T18:27:28.512Z,9.98
2022-10-10T18:30:07.133Z,9.94
2022-10-10T18:32:44.890Z,9.92
2022-10-10T18:35:25.975Z,9.87
2022-10-10T18:38:08.096Z,9.88
2022-10-10T18:40:47.180Z,9.84
2022-10-10T18:43:30.066Z,9.78
2022-10-10T18:46:10.800Z,9.75
2022-10-10T18:48:44.343Z,9.74
2022-10-10T18:51:45.979Z,9.73
2022-10-10T18:54:21.247Z,9.65
2022-10-10T18:57:10.766Z,9.57
2022-10-10T18:59:50.295Z,9.63
2022-10-10T19:02:21.556Z,9.62
2022-10-10T19:04:58.984Z,9.62
2022-10-10T19:07:41.452Z,9.60
2022-10-10T19:10:27.047Z,9.58
2022-10-10T19:13:02.375Z,9.55
2022-10-10T19:15:45.502Z,9.52
2022-10-10T19:18:25.770Z,9.46
2022-10-10T19:21:13.312Z,9.39
2022-10-10T19:23:58.289Z,9.35
2022-10-10T19:26:43.569Z,9.27
2022-10-10T19:29:25.569Z,9.24
2022-10-10T19:31:59.150Z,9.16
2022-10-10T19:34:32.134Z,9.21
2022-10-10T19:37:13.221Z,9.07
2022-10-10T19:39:54.868Z,9.07
2022-10-10T19:42:40.935Z,9.03
2022-10-10T19:45:10.958Z,9.04
2022-10-10T19:47:56.162Z,9.03
2022-10-10T19:50:33.222Z,9.04
2022-10-10T19:53:11.987Z,9.13
2022-10-10T19:56:05.697Z,9.02
2022-10-10T19:58:37.409Z,8.95
2022-10-10T20:01:28.889Z,8.82
2022-10-10T20:04:04.019Z,8.78
2022-10-10T20:06:53.761Z,8.77
2022-10-10T20:09:20.718Z,8.70
2022-10-10T20:11:52.585Z,8.69
2022-10-10T20:14:25.344Z,8.72
2022-10-10T20:16:53.879Z,8.74
2022-10-10T20:19:29.094Z,8.66
2022-10-10T20:22:04.551Z,8.63
2022-10-10T20:24:47.358Z,8.60
2022-10-10T20:27:21.281Z,8.56
2022-10-10T20:30:06.361Z,8.53
2022-10-10T20:32:39.175Z,8.58
2022-10-10T20:35:20.347Z,8.60
2022-10-10T20:37:58.499Z,8.59
2022-10-10T20:40:37.950Z,8.60
2022-10-10T20:43:16.182Z,8.57
2022-10-10T20:45:59.012Z,8.54
2022-10-10T20:48:33.583Z,8.54
2022-10-10T20:51:15.264Z,8.54
2022-10-10T20:53:45.125Z,8.54
2022-10-10T20:56:19.205Z,8.64
2022-10-10T20:58:51.707Z,8.60
2022-10-10T21:01:30.313Z,8.65
2022-10-10T21:04:14.199Z,8.63
2022-10-10T21:06:48.882Z,8.64
2022-10-10T21:09:31.065Z,8.61
2022-10-10T21:12:00.703Z,8.61
2022-10-10T21:14:43.289Z,8.66
2022-10-10T21:17:16.005Z,8.71
2022-10-10T21:19:56.706Z,8.69
2022-10-10T21:22:39.339Z,8.81
2022-10-10T21:25:14.846Z,8.78
2022-10-10T21:27:44.567Z,8.69
2022-10-10T21:30:24.669Z,8.73
2022-10-10T21:33:14.828Z,8.72
2022-10-10T21:35:52.975Z,8.71
2022-10-10T21:38:31.392Z,8.78
2022-10-10T21:41:22.156Z,8.73
2022-10-10T21:44:05.054Z,8.72
2022-10-10T21:46:40.374Z,8.69
2022-10-10T21:49:27.218Z,8.65
2022-10-10T21:52:09.071Z,8.63
2022-10-10T21:54:41.433Z,8.60
2022-10-10T21:57:30.363Z,8.57
2022-10-10T22:00:19.139Z,8.56
2022-10-10T22:02:58.110Z,8.57
2022-10-10T22:05:42.937Z,8.53
2022-10-10T22:08:23.373Z,8.49
2022-10-10T22:10:59.768Z,8.43
2022-10-10T22:13:42.233Z,8.39
2022-10-10T22:16:15.593Z,8.43
2022-10-10T22:18:57.468Z,8.41
2022-10-10T22:21:32.218Z,8.36
2022-10-10T22:24:10.148Z,8.34
2022-10-10T22:26:48.403Z,8.30
2022-10-10T22:29:22.858Z,8.30
2022-10-10T22:32:04.807Z,8.25
2022-10-10T22:34:50.634Z,8.26
2022-10-10T22:37:22.940Z,8.24
2022-10-10T22:39:57.401Z,8.28
2022-10-10T22:42:29.927Z,8.31
2022-10-10T22:45:02.212Z,8.24
2022-10-10T22:47:34.757Z,8.23
2022-10-10T22:50:10.910Z,8.22
2022-10-10T22:52:57.712Z,8.24
2022-10-10T22:55:45.294Z,8.29
2022-10-10T22:58:36.324Z,8.34
2022-10-10T23:01:33.202Z,8.37
2022-10-10T23:04:17.828Z,8.38
2022-10-10T23:06:55.255Z,8.42
2022-10-10T23:09:36.797Z,8.52
2022-10-10T23:12:08.366Z,8.55
2022-10-10T23:14:50.411Z,8.57
2022-10-10T23:17:23.606Z,8.51
2022-10-10T23:20:12.143Z,8.46
2022-10-10T23:25:49.991Z,8.58
2022-10-10T23:28:25.231Z,8.52
2022-10-10T23:31:17.763Z,8.50
2022-10-10T23:33:50.366Z,8.55
2022-10-10T23:36:20.481Z,8.60
2022-10-10T23:38:51.111Z,8.60
2022-10-10T23:41:23.044Z,8.66
2022-10-10T23:44:05.229Z,8.77
2022-10-10T23:46:51.598Z,8.87
2022-10-10T23:49:23.803Z,8.79
2022-10-10T23:52:02.614Z,8.79
2022-10-10T23:54:34.503Z,8.87
2022-10-10T23:57:10.360Z,8.89
2022-10-10T23:59:49.126Z,8.89
